createdAt,value
2018-05-06T00:01:49.824Z,54.50
2018-05-06T00:04:18.625Z,54.70
2018-05-06T00:06:48.169Z,54.90
2018-05-06T00:09:16.986Z,54.90
2018-05-06T00:11:45.809Z,55.10
2018-05-06T00:14:14.544Z,55.20
2018-05-06T00:16:44.139Z,54.80
2018-05-06T00:19:12.890Z,54.70
2018-05-06T00:21:41.645Z,55.20
2018-05-06T00:24:12.233Z,54.90
2018-05-06T00:26:41.453Z,54.90
2018-05-06T00:29:12.072Z,54.80
2018-05-06T00:31:41.504Z,54.80
2018-05-06T00:34:12.155Z,53.90
2018-05-06T00:36:41.524Z,53.80
2018-05-06T00:39:10.270Z,54.30
2018-05-06T00:41:39.106Z,52.90
2018-05-06T00:44:07.881Z,53.50
2018-05-06T00:46:36.633Z,53.40
2018-05-06T00:49:06.168Z,53.20
2018-05-06T00:51:34.933Z,53.20
2018-05-06T00:54:15.330Z,53.80
2018-05-06T00:56:44.087Z,54.00
2018-05-06T00:59:12.862Z,53.90
2018-05-06T01:01:41.837Z,53.70
2018-05-06T01:04:11.678Z,53.20
2018-05-06T01:06:40.533Z,53.40
2018-05-06T01:09:09.322Z,52.60
2018-05-06T01:11:38.162Z,53.00
2018-05-06T01:14:06.981Z,53.50
2018-05-06T01:16:35.796Z,53.10
2018-05-06T01:19:04.681Z,52.90
2018-05-06T01:21:34.196Z,53.20
2018-05-06T01:24:02.972Z,53.20
2018-05-06T01:26:31.737Z,53.70
2018-05-06T01:29:00.482Z,53.90
2018-05-06T01:31:29.985Z,54.20
2018-05-06T01:33:58.770Z,54.20
2018-05-06T01:36:27.494Z,55.60
2018-05-06T01:38:56.282Z,55.80
2018-05-06T01:41:25.805Z,57.00
2018-05-06T01:43:54.559Z,57.00
2018-05-06T01:46:23.360Z,58.10
2018-05-06T01:48:52.124Z,58.00
2018-05-06T01:51:20.884Z,58.30
2018-05-06T01:53:50.411Z,57.90
2018-05-06T01:56:19.158Z,57.80
2018-05-06T01:58:47.933Z,57.30
2018-05-06T02:01:16.661Z,57.30
2018-05-06T02:03:45.425Z,57.10
2018-05-06T02:06:14.194Z,57.30
2018-05-06T02:08:42.926Z,57.70
2018-05-06T02:11:12.456Z,58.10
2018-05-06T02:13:42.300Z,57.70
2018-05-06T02:16:11.051Z,59.30
2018-05-06T02:18:39.884Z,59.30
2018-05-06T02:21:08.657Z,59.90
2018-05-06T02:23:37.423Z,59.40
2018-05-06T02:26:06.149Z,59.80
2018-05-06T02:28:34.907Z,60.60
2018-05-06T02:31:04.134Z,59.40
2018-05-06T02:33:32.921Z,59.20
2018-05-06T02:36:01.661Z,59.50
2018-05-06T02:38:30.402Z,58.70
2018-05-06T02:40:59.151Z,59.40
2018-05-06T02:43:27.934Z,59.50
2018-05-06T02:45:56.701Z,59.60
2018-05-06T02:48:25.430Z,60.60
2018-05-06T02:50:54.172Z,59.80
2018-05-06T02:53:23.728Z,60.00
2018-05-06T02:55:52.515Z,59.90
2018-05-06T02:58:21.258Z,59.80
2018-05-06T03:00:50.013Z,60.30
2018-05-06T03:03:18.880Z,59.50
2018-05-06T03:05:47.650Z,59.80
2018-05-06T03:08:16.388Z,59.10
2018-05-06T03:10:45.171Z,59.60
2018-05-06T03:13:13.934Z,59.20
2018-05-06T03:15:42.717Z,58.80
2018-05-06T03:18:11.515Z,59.10
2018-05-06T03:20:40.253Z,59.90
2018-05-06T03:23:08.980Z,59.20
2018-05-06T03:25:37.901Z,60.50
2018-05-06T03:28:06.706Z,60.50
2018-05-06T03:30:35.448Z,60.00
2018-05-06T03:33:04.972Z,60.70
2018-05-06T03:35:33.721Z,60.60
2018-05-06T03:38:02.520Z,60.40
2018-05-06T03:40:32.083Z,59.80
2018-05-06T03:43:00.868Z,59.70
2018-05-06T03:45:29.629Z,61.00
2018-05-06T03:47:59.152Z,60.50
2018-05-06T03:50:27.949Z,60.50
2018-05-06T03:52:56.792Z,60.40
2018-05-06T03:55:25.637Z,61.50
2018-05-06T03:58:06.012Z,61.70
2018-05-06T04:00:42.217Z,61.90
2018-05-06T04:03:11.752Z,61.90
2018-05-06T04:05:40.590Z,61.70
2018-05-06T04:08:09.308Z,60.90
2018-05-06T04:10:38.199Z,59.80
2018-05-06T04:13:06.941Z,59.40
2018-05-06T04:15:35.772Z,59.70
2018-05-06T04:18:04.567Z,59.60
2018-05-06T04:20:33.357Z,59.80
2018-05-06T04:23:02.170Z,59.60
2018-05-06T04:25:30.980Z,59.20
2018-05-06T04:27:59.741Z,59.30
2018-05-06T04:30:28.531Z,59.20
2018-05-06T04:32:58.048Z,59.30
2018-05-06T04:35:26.859Z,59.20
2018-05-06T04:37:55.726Z,59.00
2018-05-06T04:40:24.554Z,59.40
2018-05-06T04:42:54.184Z,58.90
2018-05-06T04:45:22.945Z,59.30
2018-05-06T04:47:51.813Z,58.20
2018-05-06T04:50:20.572Z,58.30
2018-05-06T04:52:50.091Z,58.20
2018-05-06T04:55:18.835Z,58.20
2018-05-06T04:57:47.591Z,58.10
2018-05-06T05:00:16.504Z,58.20
2018-05-06T05:02:45.242Z,58.50
2018-05-06T05:05:14.037Z,58.70
2018-05-06T05:07:43.659Z,58.20
2018-05-06T05:10:13.515Z,58.30
2018-05-06T05:12:42.243Z,58.00
2018-05-06T05:15:12.496Z,58.10
2018-05-06T05:17:41.276Z,57.90
2018-05-06T05:20:10.059Z,58.10
2018-05-06T05:22:38.808Z,58.30
2018-05-06T05:25:08.348Z,58.10
2018-05-06T05:27:37.156Z,57.90
2018-05-06T05:30:06.334Z,57.80
2018-05-06T05:32:35.116Z,57.90
2018-05-06T05:35:04.659Z,58.00
2018-05-06T05:37:34.625Z,57.90
2018-05-06T05:40:03.368Z,57.90
2018-05-06T05:42:32.152Z,58.60
2018-05-06T05:45:01.660Z,58.20
2018-05-06T05:47:31.170Z,58.10
2018-05-06T05:49:59.948Z,58.10
2018-05-06T05:52:28.726Z,58.40
2018-05-06T05:54:57.476Z,57.60
2018-05-06T05:57:26.213Z,58.00
2018-05-06T05:59:54.966Z,58.10
2018-05-06T06:02:23.706Z,58.20
2018-05-06T06:04:53.502Z,58.30
2018-05-06T06:07:22.567Z,57.90
2018-05-06T06:09:52.963Z,58.20
2018-05-06T06:12:21.715Z,57.90
2018-05-06T06:14:51.501Z,58.30
2018-05-06T06:17:20.277Z,57.20
2018-05-06T06:19:49.788Z,57.50
2018-05-06T06:22:19.337Z,57.80
2018-05-06T06:24:48.115Z,57.80
2018-05-06T06:27:16.846Z,58.40
2018-05-06T06:29:45.600Z,58.10
2018-05-06T06:32:14.438Z,57.50
2018-05-06T06:34:45.833Z,57.40
2018-05-06T06:37:14.582Z,57.40
2018-05-06T06:39:44.866Z,57.20
2018-05-06T06:42:14.288Z,57.80
2018-05-06T06:44:44.305Z,58.50
2018-05-06T06:47:13.068Z,57.10
2018-05-06T06:49:42.468Z,56.70
2018-05-06T06:52:11.234Z,56.70
2018-05-06T06:54:39.985Z,56.20
2018-05-06T06:57:09.538Z,55.70
2018-05-06T06:59:39.037Z,55.70
2018-05-06T07:02:07.762Z,56.60
2018-05-06T07:04:36.508Z,56.70
2018-05-06T07:07:08.171Z,56.60
2018-05-06T07:09:37.750Z,56.50
2018-05-06T07:12:08.055Z,55.50
2018-05-06T07:14:42.153Z,55.40
2018-05-06T07:17:10.903Z,54.30
2018-05-06T07:19:39.875Z,54.60
2018-05-06T07:22:09.424Z,54.90
2018-05-06T07:24:38.988Z,54.80
2018-05-06T07:27:08.314Z,54.50
2018-05-06T07:29:38.315Z,54.30
2018-05-06T07:32:07.103Z,54.20
2018-05-06T07:34:36.665Z,54.60
2018-05-06T07:37:05.449Z,54.60
2018-05-06T07:39:34.263Z,54.90
2018-05-06T07:42:03.022Z,55.00
2018-05-06T07:44:31.789Z,55.40
2018-05-06T07:47:02.268Z,54.80
2018-05-06T07:49:31.549Z,55.00
2018-05-06T07:52:01.256Z,55.10
2018-05-06T07:54:30.897Z,54.90
2018-05-06T07:56:59.652Z,55.00
2018-05-06T07:59:29.547Z,55.40
2018-05-06T08:01:59.854Z,55.00
2018-05-06T08:04:29.007Z,54.00
2018-05-06T08:06:57.757Z,54.40
2018-05-06T08:09:28.034Z,54.60
2018-05-06T08:12:00.150Z,54.70
2018-05-06T08:14:30.133Z,54.70
2018-05-06T08:16:59.680Z,55.80
2018-05-06T08:19:29.096Z,55.20
2018-05-06T08:21:58.017Z,55.00
2018-05-06T08:24:27.510Z,55.60
2018-05-06T08:26:56.528Z,55.70
2018-05-06T08:29:27.010Z,54.80
2018-05-06T08:31:56.151Z,53.50
2018-05-06T08:34:26.216Z,55.00
2018-05-06T08:36:55.026Z,54.90
2018-05-06T08:39:24.602Z,52.10
2018-05-06T08:41:54.153Z,52.40
2018-05-06T08:44:23.844Z,52.20
2018-05-06T08:46:52.601Z,52.40
2018-05-06T08:49:21.359Z,51.70
2018-05-06T08:51:50.438Z,51.60
2018-05-06T08:54:20.186Z,51.30
2018-05-06T08:56:49.058Z,49.80
2018-05-06T08:59:18.904Z,50.20
2018-05-06T09:01:47.628Z,50.40
2018-05-06T09:04:16.452Z,50.40
2018-05-06T09:06:45.418Z,50.40
2018-05-06T09:09:14.169Z,51.60
2018-05-06T09:11:42.954Z,49.10
2018-05-06T09:14:11.748Z,48.30
2018-05-06T09:16:41.116Z,49.40
2018-05-06T09:19:11.477Z,49.30
2018-05-06T09:21:40.294Z,48.50
2018-05-06T09:24:11.140Z,49.00
2018-05-06T09:26:39.939Z,47.80
2018-05-06T09:29:09.342Z,47.60
2018-05-06T09:31:38.147Z,47.50
2018-05-06T09:34:08.743Z,46.60
2018-05-06T09:36:37.816Z,46.20
2018-05-06T09:39:07.379Z,46.80
2018-05-06T09:41:36.138Z,46.80
2018-05-06T09:44:05.398Z,46.60
2018-05-06T09:46:34.262Z,46.70
2018-05-06T09:49:04.500Z,46.10
2018-05-06T09:51:34.984Z,46.20
2018-05-06T09:54:05.483Z,47.00
2018-05-06T09:56:34.234Z,45.70
2018-05-06T09:59:05.126Z,46.80
2018-05-06T10:01:37.476Z,44.40
2018-05-06T10:04:06.585Z,44.30
2018-05-06T10:06:36.767Z,42.70
2018-05-06T10:09:06.296Z,46.80
2018-05-06T10:11:35.818Z,44.80
2018-05-06T10:14:04.555Z,44.70
2018-05-06T10:16:34.116Z,43.70
2018-05-06T10:19:02.866Z,43.70
2018-05-06T10:21:34.723Z,43.30
2018-05-06T10:24:03.484Z,43.20
2018-05-06T10:26:32.223Z,45.00
2018-05-06T10:29:01.565Z,42.70
2018-05-06T10:31:30.601Z,45.50
2018-05-06T10:33:59.346Z,43.10
2018-05-06T10:36:28.091Z,42.40
2018-05-06T10:38:56.815Z,42.50
2018-05-06T10:41:25.574Z,43.70
2018-05-06T10:43:55.857Z,43.50
2018-05-06T10:46:24.555Z,42.80
2018-05-06T10:48:53.778Z,41.80
2018-05-06T10:51:23.365Z,42.50
2018-05-06T10:53:53.318Z,42.30
2018-05-06T10:56:23.521Z,41.60
2018-05-06T10:58:52.629Z,41.50
2018-05-06T11:01:22.184Z,40.00
2018-05-06T11:03:51.019Z,39.90
2018-05-06T11:06:20.515Z,39.80
2018-05-06T11:08:49.302Z,39.80
2018-05-06T11:11:18.826Z,43.40
2018-05-06T11:13:47.606Z,43.20
2018-05-06T11:16:16.535Z,40.80
2018-05-06T11:18:45.329Z,40.40
2018-05-06T11:21:14.074Z,40.90
2018-05-06T11:23:51.841Z,40.30
2018-05-06T11:26:20.621Z,42.70
2018-05-06T11:28:49.610Z,41.30
2018-05-06T11:31:18.472Z,41.20
2018-05-06T11:33:47.239Z,42.20
2018-05-06T11:36:16.660Z,43.60
2018-05-06T11:38:45.517Z,41.90
2018-05-06T11:41:14.997Z,39.60
2018-05-06T11:43:43.778Z,39.50
2018-05-06T11:46:12.624Z,41.60
2018-05-06T11:48:41.412Z,41.40
2018-05-06T11:51:10.321Z,42.10
2018-05-06T11:53:39.062Z,41.90
2018-05-06T11:56:08.604Z,43.00
2018-05-06T11:58:37.348Z,42.90
2018-05-06T12:01:06.110Z,44.40
2018-05-06T12:03:34.852Z,42.00
2018-05-06T12:06:03.680Z,40.90
2018-05-06T12:08:32.450Z,40.20
2018-05-06T12:11:01.218Z,41.10
2018-05-06T12:13:31.592Z,41.70
2018-05-06T12:16:00.551Z,41.70
2018-05-06T12:18:29.393Z,40.60
2018-05-06T12:20:58.141Z,40.50
2018-05-06T12:23:27.006Z,39.90
2018-05-06T12:25:55.779Z,40.60
2018-05-06T12:28:24.497Z,42.00
2018-05-06T12:30:54.015Z,40.70
2018-05-06T12:33:23.592Z,41.60
2018-05-06T12:35:52.399Z,41.20
2018-05-06T12:38:21.180Z,40.80
2018-05-06T12:40:50.015Z,41.40
2018-05-06T12:43:18.804Z,40.30
2018-05-06T12:45:47.569Z,40.50
2018-05-06T12:48:18.181Z,39.30
2018-05-06T12:50:47.233Z,41.80
2018-05-06T12:53:15.954Z,39.80
2018-05-06T12:55:44.824Z,41.40
2018-05-06T12:58:13.585Z,39.40
2018-05-06T13:00:42.305Z,40.60
2018-05-06T13:03:11.066Z,38.50
2018-05-06T13:05:39.941Z,39.60
2018-05-06T13:08:08.686Z,36.50
2018-05-06T13:10:38.248Z,37.30
2018-05-06T13:13:07.084Z,37.40
2018-05-06T13:15:36.636Z,36.80
2018-05-06T13:18:05.414Z,36.70
2018-05-06T13:20:34.192Z,37.90
2018-05-06T13:23:02.908Z,37.50
2018-05-06T13:25:31.683Z,36.50
2018-05-06T13:28:00.501Z,34.30
2018-05-06T13:30:29.221Z,34.90
2018-05-06T13:32:58.023Z,36.20
2018-05-06T13:35:26.780Z,35.90
2018-05-06T13:37:56.316Z,35.40
2018-05-06T13:40:25.090Z,35.40
2018-05-06T13:42:54.603Z,35.60
2018-05-06T13:45:24.119Z,34.80
2018-05-06T13:47:52.872Z,34.80
2018-05-06T13:50:22.163Z,34.60
2018-05-06T13:52:50.905Z,34.80
2018-05-06T13:55:19.713Z,33.70
2018-05-06T13:57:48.765Z,33.10
2018-05-06T14:00:19.383Z,33.40
2018-05-06T14:02:48.580Z,33.30
2018-05-06T14:05:17.308Z,33.70
2018-05-06T14:07:46.831Z,33.70
2018-05-06T14:10:15.581Z,35.80
2018-05-06T14:12:44.433Z,32.30
2018-05-06T14:15:13.188Z,33.30
2018-05-06T14:17:41.950Z,31.70
2018-05-06T14:20:11.469Z,31.40
2018-05-06T14:22:40.211Z,31.50
2018-05-06T14:25:08.986Z,33.20
2018-05-06T14:27:37.733Z,32.80
2018-05-06T14:30:06.636Z,32.70
2018-05-06T14:32:35.341Z,32.80
2018-05-06T14:35:04.121Z,33.00
2018-05-06T14:37:32.840Z,31.80
2018-05-06T14:40:01.665Z,33.40
2018-05-06T14:42:30.416Z,32.60
2018-05-06T14:44:59.156Z,32.50
2018-05-06T14:47:39.548Z,33.30
2018-05-06T14:50:08.278Z,32.40
2018-05-06T14:52:37.636Z,30.90
2018-05-06T14:55:06.420Z,31.60
2018-05-06T14:57:37.548Z,32.20
2018-05-06T15:00:06.334Z,32.00
2018-05-06T15:02:35.050Z,32.80
2018-05-06T15:05:03.838Z,32.80
2018-05-06T15:07:32.593Z,34.20
2018-05-06T15:10:01.349Z,33.80
2018-05-06T15:12:30.086Z,33.70
2018-05-06T15:14:59.021Z,33.00
2018-05-06T15:17:28.572Z,32.10
2018-05-06T15:19:58.119Z,32.40
2018-05-06T15:22:26.869Z,32.30
2018-05-06T15:24:57.191Z,32.60
2018-05-06T15:27:26.049Z,32.10
2018-05-06T15:29:54.834Z,30.90
2018-05-06T15:32:23.565Z,33.00
2018-05-06T15:34:53.300Z,33.50
2018-05-06T15:37:22.053Z,32.10
2018-05-06T15:39:50.788Z,32.90
2018-05-06T15:42:19.547Z,32.60
2018-05-06T15:44:49.129Z,32.30
2018-05-06T15:47:17.863Z,33.20
2018-05-06T15:49:46.658Z,33.70
2018-05-06T15:52:15.578Z,32.50
2018-05-06T15:54:44.313Z,32.70
2018-05-06T15:57:13.067Z,34.00
2018-05-06T15:59:42.600Z,32.60
2018-05-06T16:05:12.252Z,32.00
2018-05-06T16:07:41.019Z,33.30
2018-05-06T16:10:09.784Z,33.00
2018-05-06T16:12:38.628Z,32.40
2018-05-06T16:15:07.403Z,34.20
2018-05-06T16:17:37.003Z,33.30
2018-05-06T16:20:05.670Z,33.20
2018-05-06T16:22:38.414Z,34.70
2018-05-06T16:25:17.328Z,34.10
2018-05-06T16:27:53.213Z,33.20
2018-05-06T16:30:27.113Z,32.50
2018-05-06T16:33:02.649Z,33.80
2018-05-06T16:35:37.421Z,34.00
2018-05-06T16:38:13.511Z,33.90
2018-05-06T16:40:48.038Z,32.10
2018-05-06T16:43:20.089Z,33.70
2018-05-06T16:45:55.330Z,34.10
2018-05-06T16:48:27.224Z,33.70
2018-05-06T16:51:02.506Z,33.40
2018-05-06T16:53:37.986Z,35.00
2018-05-06T16:56:15.422Z,34.30
2018-05-06T16:58:51.003Z,34.50
2018-05-06T17:01:21.973Z,35.60
2018-05-06T17:03:55.854Z,37.00
2018-05-06T17:06:31.322Z,37.00
2018-05-06T17:09:06.355Z,37.40
2018-05-06T17:11:41.623Z,37.80
2018-05-06T17:14:18.839Z,38.40
2018-05-06T17:16:55.580Z,38.90
2018-05-06T17:19:29.242Z,40.00
2018-05-06T17:22:03.020Z,40.90
2018-05-06T17:24:38.272Z,41.40
2018-05-06T17:27:13.699Z,42.00
2018-05-06T17:29:49.975Z,42.70
2018-05-06T17:35:14.174Z,43.00
2018-05-06T17:37:49.811Z,42.80
2018-05-06T17:40:28.693Z,42.90
2018-05-06T17:43:07.001Z,42.60
2018-05-06T17:45:39.716Z,43.60
2018-05-06T17:48:18.610Z,44.20
2018-05-06T17:50:55.660Z,44.00
2018-05-06T17:53:27.719Z,42.80
2018-05-06T17:56:01.244Z,44.00
2018-05-06T17:58:35.582Z,42.30
2018-05-06T18:06:24.729Z,43.20
2018-05-06T18:08:58.559Z,44.00
2018-05-06T18:11:31.820Z,44.30
2018-05-06T18:14:09.800Z,44.70
2018-05-06T18:16:44.114Z,44.00
2018-05-06T18:19:19.750Z,44.70
2018-05-06T18:21:50.581Z,45.30
2018-05-06T18:24:25.069Z,45.00
2018-05-06T18:26:59.477Z,45.40
2018-05-06T18:29:34.556Z,45.60
2018-05-06T18:32:07.796Z,45.50
2018-05-06T18:34:41.677Z,45.90
2018-05-06T18:37:15.234Z,46.90
2018-05-06T18:39:47.316Z,47.10
2018-05-06T18:42:22.470Z,46.50
2018-05-06T18:44:55.933Z,46.60
2018-05-06T18:47:33.540Z,46.40
2018-05-06T18:50:06.984Z,46.30
2018-05-06T18:52:43.413Z,46.20
2018-05-06T18:55:21.687Z,45.30
2018-05-06T18:57:56.944Z,46.60
2018-05-06T19:00:31.098Z,47.10
2018-05-06T19:06:08.278Z,46.10
2018-05-06T19:08:43.543Z,47.00
2018-05-06T19:14:00.930Z,46.80
2018-05-06T19:16:37.051Z,46.70
2018-05-06T19:19:12.228Z,47.30
2018-05-06T19:21:47.506Z,46.20
2018-05-06T19:24:24.552Z,46.00
2018-05-06T19:29:40.413Z,47.00
2018-05-06T19:32:16.304Z,47.20
2018-05-06T19:34:46.031Z,46.60
2018-05-06T19:37:14.778Z,47.20
2018-05-06T19:39:43.559Z,47.20
2018-05-06T19:42:13.115Z,46.70
2018-05-06T19:44:43.277Z,46.70
2018-05-06T19:47:17.347Z,47.40
2018-05-06T19:49:46.242Z,47.30
2018-05-06T19:52:15.005Z,47.10
2018-05-06T19:54:43.753Z,47.40
2018-05-06T19:57:13.900Z,48.10
2018-05-06T19:59:43.182Z,47.90
2018-05-06T20:02:13.213Z,47.00
2018-05-06T20:04:42.531Z,46.90
2018-05-06T20:07:12.729Z,47.80
2018-05-06T20:09:42.645Z,46.90
2018-05-06T20:12:11.412Z,47.40
2018-05-06T20:14:40.157Z,47.50
2018-05-06T20:17:09.029Z,48.30
2018-05-06T20:19:38.521Z,48.80
2018-05-06T20:22:07.240Z,48.20
2018-05-06T20:24:36.028Z,48.50
2018-05-06T20:27:05.571Z,48.80
2018-05-06T20:29:34.317Z,49.30
2018-05-06T20:32:03.188Z,49.30
2018-05-06T20:34:31.960Z,48.80
2018-05-06T20:37:01.487Z,49.30
2018-05-06T20:39:30.247Z,48.90
2018-05-06T20:41:59.828Z,49.50
2018-05-06T20:44:28.565Z,49.50
2018-05-06T20:46:59.226Z,49.60
2018-05-06T20:49:29.392Z,49.80
2018-05-06T20:51:58.606Z,49.80
2018-05-06T20:54:28.950Z,49.70
2018-05-06T20:56:58.849Z,49.70
2018-05-06T20:59:29.433Z,50.60
2018-05-06T21:01:58.359Z,50.60
2018-05-06T21:04:27.406Z,50.80
2018-05-06T21:06:56.974Z,50.40
2018-05-06T21:09:25.779Z,50.00
2018-05-06T21:11:55.323Z,50.50
2018-05-06T21:14:24.113Z,50.50
2018-05-06T21:16:52.926Z,50.40
2018-05-06T21:19:21.663Z,51.20
2018-05-06T21:21:51.111Z,51.50
2018-05-06T21:24:20.251Z,51.30
2018-05-06T21:26:49.000Z,50.30
2018-05-06T21:29:17.794Z,51.10
2018-05-06T21:31:52.629Z,51.10
2018-05-06T21:34:28.845Z,51.40
2018-05-06T21:37:05.637Z,51.40
2018-05-06T21:39:37.607Z,51.00
2018-05-06T21:42:12.944Z,51.00
2018-05-06T21:44:54.856Z,51.00
2018-05-06T21:47:35.871Z,51.60
2018-05-06T21:50:12.388Z,51.30
2018-05-06T21:52:44.916Z,51.20
2018-05-06T21:55:23.612Z,51.40
2018-05-06T21:57:59.523Z,51.50
2018-05-06T22:00:31.366Z,51.50
2018-05-06T22:03:06.249Z,51.70
2018-05-06T22:05:40.836Z,52.20
2018-05-06T22:08:15.056Z,53.00
2018-05-06T22:10:47.925Z,52.70
2018-05-06T22:13:28.250Z,52.30
2018-05-06T22:16:01.392Z,52.50
2018-05-06T22:18:36.291Z,52.30
2018-05-06T22:21:11.630Z,52.30
2018-05-06T22:23:44.864Z,52.10
2018-05-06T22:26:21.220Z,52.50
2018-05-06T22:28:55.545Z,52.60
2018-05-06T22:31:30.269Z,52.40
2018-05-06T22:34:06.988Z,52.90
2018-05-06T22:36:41.392Z,52.30
2018-05-06T22:39:16.038Z,52.10
2018-05-06T22:44:32.527Z,53.60
2018-05-06T22:47:04.503Z,52.90
2018-05-06T22:49:41.869Z,52.60
2018-05-06T22:52:14.662Z,52.80
2018-05-06T22:54:50.449Z,54.30
2018-05-06T22:57:23.471Z,53.70
2018-05-06T23:00:00.411Z,53.80
2018-05-06T23:02:36.352Z,53.60
2018-05-06T23:05:07.669Z,53.60
2018-05-06T23:07:42.945Z,53.70
2018-05-06T23:10:24.039Z,53.90
2018-05-06T23:12:59.452Z,53.90
2018-05-06T23:15:33.796Z,53.60
2018-05-06T23:18:11.658Z,53.30
2018-05-06T23:20:46.504Z,52.60
2018-05-06T23:23:19.821Z,52.60
2018-05-06T23:26:01.905Z,52.90
2018-05-06T23:28:38.403Z,52.70
2018-05-06T23:31:15.177Z,53.10
2018-05-06T23:33:47.416Z,53.90
2018-05-06T23:36:23.172Z,53.10
2018-05-06T23:39:01.094Z,53.00
2018-05-06T23:41:38.068Z,53.50
2018-05-06T23:44:15.237Z,53.80
2018-05-06T23:46:50.765Z,53.40
2018-05-06T23:49:24.553Z,53.40
2018-05-06T23:51:59.824Z,53.70
2018-05-06T23:54:35.888Z,54.00
2018-05-06T23:57:10.716Z,53.30
2018-05-06T23:59:45.996Z,53.10
